createdAt,value
2018-02-22T00:01:49.548Z,706.84
2018-02-22T00:02:50.011Z,706.82
2018-02-22T00:03:50.468Z,706.82
2018-02-22T00:04:50.936Z,706.83
2018-02-22T00:05:51.402Z,706.84
2018-02-22T00:06:51.866Z,706.83
2018-02-22T00:07:52.325Z,706.76
2018-02-22T00:08:52.790Z,706.73
2018-02-22T00:09:53.256Z,706.67
2018-02-22T00:10:53.921Z,706.72
2018-02-22T00:11:54.187Z,706.67
2018-02-22T00:12:54.649Z,706.77
2018-02-22T00:13:55.110Z,706.68
2018-02-22T00:14:55.569Z,706.71
2018-02-22T00:15:56.037Z,706.68
2018-02-22T00:16:56.503Z,706.67
2018-02-22T00:18:57.422Z,706.57
2018-02-22T00:19:57.890Z,706.58
2018-02-22T00:20:58.355Z,706.66
2018-02-22T00:21:58.820Z,706.64
2018-02-22T00:22:59.284Z,706.64
2018-02-22T00:23:59.746Z,706.69
2018-02-22T00:25:00.212Z,706.67
2018-02-22T00:26:00.669Z,706.66
2018-02-22T00:28:01.602Z,706.56
2018-02-22T00:29:02.066Z,706.59
2018-02-22T00:30:02.530Z,706.61
2018-02-22T00:31:03.045Z,706.61
2018-02-22T00:32:03.477Z,706.47
2018-02-22T00:33:03.922Z,706.58
2018-02-22T00:34:04.387Z,706.55
2018-02-22T00:35:04.847Z,706.49
2018-02-22T00:36:05.312Z,706.56
2018-02-22T00:37:05.769Z,706.53
2018-02-22T00:38:06.242Z,706.46
2018-02-22T00:40:07.165Z,706.47
2018-02-22T00:41:07.632Z,706.44
2018-02-22T00:42:08.095Z,706.49
2018-02-22T00:43:08.556Z,706.45
2018-02-22T00:44:09.016Z,706.45
2018-02-22T00:45:09.488Z,706.45
2018-02-22T00:48:10.871Z,706.48
2018-02-22T00:49:11.341Z,706.39
2018-02-22T00:50:11.804Z,706.33
2018-02-22T00:51:12.470Z,706.36
2018-02-22T00:52:12.730Z,706.37
2018-02-22T00:53:13.196Z,706.35
2018-02-22T00:54:13.657Z,706.40
2018-02-22T00:55:14.117Z,706.31
2018-02-22T00:56:14.583Z,706.35
2018-02-22T00:57:15.049Z,706.36
2018-02-22T00:58:15.564Z,706.29
2018-02-22T00:59:15.971Z,706.31
2018-02-22T01:01:16.902Z,706.30
2018-02-22T01:02:17.370Z,706.33
2018-02-22T01:03:17.881Z,706.26
2018-02-22T01:04:18.294Z,706.29
2018-02-22T01:05:18.757Z,706.35
2018-02-22T01:06:19.215Z,706.30
2018-02-22T01:07:19.685Z,706.32
2018-02-22T01:08:20.150Z,706.24
2018-02-22T01:09:20.612Z,706.28
2018-02-22T01:10:21.071Z,706.18
2018-02-22T01:11:21.544Z,706.26
2018-02-22T01:12:22.003Z,706.33
2018-02-22T01:13:22.669Z,706.32
2018-02-22T01:14:23.333Z,706.28
2018-02-22T01:15:23.443Z,706.22
2018-02-22T01:16:23.856Z,706.20
2018-02-22T01:17:24.314Z,706.28
2018-02-22T01:18:24.990Z,706.21
2018-02-22T01:19:25.249Z,706.21
2018-02-22T01:20:25.710Z,706.21
2018-02-22T01:21:26.175Z,706.21
2018-02-22T01:22:26.635Z,706.18
2018-02-22T01:23:27.106Z,706.12
2018-02-22T01:25:28.029Z,706.16
2018-02-22T01:26:28.496Z,706.14
2018-02-22T01:27:28.958Z,706.15
2018-02-22T01:28:29.413Z,706.20
2018-02-22T01:29:29.884Z,706.15
2018-02-22T01:30:30.347Z,706.08
2018-02-22T01:31:30.810Z,706.09
2018-02-22T01:32:31.275Z,706.10
2018-02-22T01:33:31.739Z,706.12
2018-02-22T01:34:32.204Z,706.12
2018-02-22T01:35:32.661Z,706.09
2018-02-22T01:36:33.137Z,706.10
2018-02-22T01:37:33.593Z,706.09
2018-02-22T01:38:34.058Z,706.09
2018-02-22T01:39:34.514Z,706.06
2018-02-22T01:41:35.446Z,706.03
2018-02-22T01:42:35.912Z,706.09
2018-02-22T01:43:36.577Z,706.12
2018-02-22T01:44:36.838Z,706.06
2018-02-22T01:45:37.302Z,706.08
2018-02-22T01:46:37.759Z,706.04
2018-02-22T01:47:38.230Z,706.01
2018-02-22T01:48:38.745Z,705.96
2018-02-22T01:49:39.154Z,705.99
2018-02-22T01:50:39.613Z,706.04
2018-02-22T01:51:40.136Z,706.00
2018-02-22T01:52:40.545Z,705.98
2018-02-22T01:53:41.061Z,706.00
2018-02-22T01:54:41.474Z,705.99
2018-02-22T01:55:41.936Z,705.90
2018-02-22T01:56:42.398Z,705.95
2018-02-22T01:57:42.858Z,705.99
2018-02-22T01:58:43.326Z,705.96
2018-02-22T01:59:43.790Z,705.97
2018-02-22T02:00:44.261Z,705.90
2018-02-22T02:01:44.710Z,705.97
2018-02-22T02:02:45.181Z,705.94
2018-02-22T02:03:45.694Z,705.91
2018-02-22T02:04:46.114Z,705.84
2018-02-22T02:05:46.571Z,705.96
2018-02-22T02:07:47.497Z,705.86
2018-02-22T02:08:47.962Z,705.91
2018-02-22T02:09:48.424Z,705.99
2018-02-22T02:10:48.889Z,705.91
2018-02-22T02:11:49.353Z,705.89
2018-02-22T02:12:49.814Z,705.93
2018-02-22T02:13:50.278Z,705.80
2018-02-22T02:14:50.743Z,705.81
2018-02-22T02:15:51.208Z,705.88
2018-02-22T02:16:51.670Z,705.89
2018-02-22T02:17:52.134Z,705.86
2018-02-22T02:18:52.649Z,705.82
2018-02-22T02:19:53.257Z,705.87
2018-02-22T02:20:53.524Z,705.91
2018-02-22T02:21:53.988Z,705.87
2018-02-22T02:24:06.751Z,705.82
2018-02-22T02:25:55.841Z,705.82
2018-02-22T02:26:56.302Z,705.85
2018-02-22T02:29:57.694Z,705.81
2018-02-22T02:30:58.156Z,705.77
2018-02-22T02:31:58.624Z,705.70
2018-02-22T02:32:59.085Z,705.79
2018-02-22T02:33:59.598Z,705.80
2018-02-22T02:35:00.013Z,705.78
2018-02-22T02:36:00.476Z,705.80
2018-02-22T02:37:00.951Z,705.77
2018-02-22T02:38:01.396Z,705.78
2018-02-22T02:39:01.865Z,705.77
2018-02-22T02:41:02.792Z,705.75
2018-02-22T02:42:03.249Z,705.81
2018-02-22T02:43:03.721Z,705.79
2018-02-22T02:44:04.235Z,705.70
2018-02-22T02:45:04.648Z,705.79
2018-02-22T02:47:05.574Z,705.75
2018-02-22T02:48:06.040Z,705.75
2018-02-22T02:49:06.546Z,705.75
2018-02-22T02:50:06.965Z,705.75
2018-02-22T02:51:07.428Z,705.69
2018-02-22T02:52:07.895Z,705.69
2018-02-22T02:53:08.351Z,705.67
2018-02-22T02:54:20.805Z,705.71
2018-02-22T02:56:09.748Z,705.69
2018-02-22T02:57:10.209Z,705.67
2018-02-22T02:58:10.673Z,705.63
2018-02-22T02:59:11.138Z,705.68
2018-02-22T03:00:11.595Z,705.63
2018-02-22T03:01:12.060Z,705.57
2018-02-22T03:02:12.526Z,705.51
2018-02-22T03:03:12.990Z,705.63
2018-02-22T03:04:24.792Z,705.60
2018-02-22T03:05:13.916Z,705.51
2018-02-22T03:06:14.380Z,705.45
2018-02-22T03:07:14.849Z,705.59
2018-02-22T03:10:16.285Z,705.55
2018-02-22T03:11:16.692Z,705.54
2018-02-22T03:12:17.162Z,705.61
2018-02-22T03:13:17.826Z,705.58
2018-02-22T03:14:18.292Z,705.56
2018-02-22T03:15:18.603Z,705.58
2018-02-22T03:16:19.018Z,705.61
2018-02-22T03:17:19.477Z,705.55
2018-02-22T03:18:19.939Z,705.57
2018-02-22T03:19:20.405Z,705.51
2018-02-22T03:20:20.871Z,705.55
2018-02-22T03:21:21.332Z,705.52
2018-02-22T03:22:21.791Z,705.51
2018-02-22T03:23:22.259Z,705.52
2018-02-22T03:24:22.722Z,705.55
2018-02-22T03:25:23.183Z,705.44
2018-02-22T03:26:23.648Z,705.48
2018-02-22T03:28:24.577Z,705.46
2018-02-22T03:29:25.035Z,705.50
2018-02-22T03:30:25.554Z,705.47
2018-02-22T03:31:25.969Z,705.46
2018-02-22T03:32:26.430Z,705.41
2018-02-22T03:33:26.889Z,705.45
2018-02-22T03:34:27.358Z,705.41
2018-02-22T03:35:27.822Z,705.45
2018-02-22T03:36:28.286Z,705.37
2018-02-22T03:37:28.950Z,705.40
2018-02-22T03:38:29.211Z,705.40
2018-02-22T03:39:29.673Z,705.40
2018-02-22T03:40:30.132Z,705.41
2018-02-22T03:41:30.600Z,705.40
2018-02-22T03:42:31.064Z,705.38
2018-02-22T03:43:31.529Z,705.33
2018-02-22T03:44:31.988Z,705.38
2018-02-22T03:45:32.454Z,705.41
2018-02-22T03:46:32.918Z,705.42
2018-02-22T03:47:33.381Z,705.37
2018-02-22T03:48:33.846Z,705.35
2018-02-22T03:49:34.308Z,705.41
2018-02-22T03:50:34.773Z,705.41
2018-02-22T03:51:35.231Z,705.38
2018-02-22T03:52:35.698Z,705.31
2018-02-22T03:53:36.161Z,705.29
2018-02-22T03:55:37.140Z,705.36
2018-02-22T03:56:37.553Z,705.35
2018-02-22T03:57:38.018Z,705.35
2018-02-22T03:58:38.480Z,705.28
2018-02-22T03:59:38.944Z,705.32
2018-02-22T04:01:40.124Z,705.35
2018-02-22T04:02:40.329Z,705.25
2018-02-22T04:03:40.799Z,705.24
2018-02-22T04:05:41.724Z,705.28
2018-02-22T04:06:42.187Z,705.30
2018-02-22T04:07:42.651Z,705.34
2018-02-22T04:08:43.109Z,705.30
2018-02-22T04:09:43.576Z,705.33
2018-02-22T04:10:44.093Z,705.28
2018-02-22T04:11:44.497Z,705.25
2018-02-22T04:12:44.969Z,705.29
2018-02-22T04:13:45.431Z,705.20
2018-02-22T04:14:45.894Z,705.23
2018-02-22T04:16:46.824Z,705.20
2018-02-22T04:17:47.285Z,705.24
2018-02-22T04:18:47.751Z,705.20
2018-02-22T04:19:48.213Z,705.24
2018-02-22T04:20:48.678Z,705.25
2018-02-22T04:21:49.138Z,705.20
2018-02-22T04:22:49.598Z,705.21
2018-02-22T04:23:50.066Z,705.20
2018-02-22T04:24:50.530Z,705.23
2018-02-22T04:26:51.455Z,705.23
2018-02-22T04:27:51.919Z,705.23
2018-02-22T04:28:52.384Z,705.20
2018-02-22T04:30:53.308Z,705.15
2018-02-22T04:31:53.822Z,705.24
2018-02-22T04:32:54.239Z,705.20
2018-02-22T04:33:54.696Z,705.13
2018-02-22T04:34:55.164Z,705.21
2018-02-22T04:35:55.626Z,705.17
2018-02-22T04:36:56.095Z,705.21
2018-02-22T04:37:56.555Z,705.11
2018-02-22T04:38:57.019Z,705.21
2018-02-22T04:39:57.480Z,705.26
2018-02-22T04:40:57.944Z,705.16
2018-02-22T04:42:58.865Z,705.31
2018-02-22T04:43:59.335Z,705.25
2018-02-22T04:44:59.798Z,705.14
2018-02-22T04:46:00.260Z,705.24
2018-02-22T04:47:00.722Z,705.12
2018-02-22T04:48:01.191Z,705.14
2018-02-22T04:49:01.652Z,705.27
2018-02-22T04:50:02.115Z,705.12
2018-02-22T04:51:02.578Z,705.15
2018-02-22T04:52:03.042Z,705.16
2018-02-22T04:54:03.971Z,705.14
2018-02-22T04:55:04.427Z,705.27
2018-02-22T04:56:04.894Z,705.23
2018-02-22T04:58:05.823Z,705.15
2018-02-22T04:59:06.483Z,705.11
2018-02-22T05:00:06.752Z,705.14
2018-02-22T05:02:07.676Z,705.17
2018-02-22T05:03:08.137Z,705.17
2018-02-22T05:04:08.651Z,705.18
2018-02-22T05:05:09.066Z,705.21
2018-02-22T05:06:09.524Z,705.04
2018-02-22T05:07:09.993Z,705.07
2018-02-22T05:08:10.456Z,705.08
2018-02-22T05:09:10.923Z,705.20
2018-02-22T05:11:11.845Z,705.05
2018-02-22T05:12:12.311Z,705.07
2018-02-22T05:13:12.774Z,705.10
2018-02-22T05:14:13.241Z,705.08
2018-02-22T05:15:13.695Z,705.11
2018-02-22T05:16:14.162Z,705.06
2018-02-22T05:17:14.635Z,705.09
2018-02-22T05:18:15.089Z,705.13
2018-02-22T05:19:15.549Z,705.14
2018-02-22T05:20:16.016Z,705.15
2018-02-22T05:22:16.941Z,705.08
2018-02-22T05:23:17.401Z,705.14
2018-02-22T05:24:17.870Z,704.98
2018-02-22T05:25:18.334Z,705.01
2018-02-22T05:26:18.795Z,705.05
2018-02-22T05:27:19.310Z,705.03
2018-02-22T05:28:19.725Z,705.04
2018-02-22T05:29:20.204Z,705.03
2018-02-22T05:30:20.652Z,705.06
2018-02-22T05:31:21.115Z,705.06
2018-02-22T05:32:21.577Z,705.08
2018-02-22T05:33:22.034Z,705.05
2018-02-22T05:34:22.556Z,704.98
2018-02-22T05:35:22.967Z,705.08
2018-02-22T05:36:23.432Z,705.01
2018-02-22T05:37:23.944Z,705.02
2018-02-22T05:38:24.356Z,705.04
2018-02-22T05:39:24.818Z,705.09
2018-02-22T05:40:25.283Z,705.00
2018-02-22T05:41:25.745Z,704.99
2018-02-22T05:42:26.312Z,704.97
2018-02-22T05:43:26.669Z,705.00
2018-02-22T05:44:27.136Z,705.06
2018-02-22T05:45:27.600Z,705.04
2018-02-22T05:46:28.062Z,705.08
2018-02-22T05:47:28.525Z,705.05
2018-02-22T05:48:28.988Z,705.08
2018-02-22T05:49:29.452Z,705.06
2018-02-22T05:50:29.916Z,705.08
2018-02-22T05:51:30.379Z,705.09
2018-02-22T05:52:30.892Z,705.13
2018-02-22T05:53:31.305Z,705.12
2018-02-22T05:55:32.230Z,705.05
2018-02-22T05:56:32.693Z,705.09
2018-02-22T05:57:44.940Z,705.09
2018-02-22T05:58:33.626Z,705.15
2018-02-22T05:59:34.084Z,705.19
2018-02-22T06:00:34.547Z,705.12
2018-02-22T06:01:35.012Z,705.11
2018-02-22T06:05:36.864Z,705.04
2018-02-22T06:06:37.330Z,705.14
2018-02-22T06:07:37.835Z,705.15
2018-02-22T06:08:38.253Z,705.10
2018-02-22T06:09:38.716Z,705.11
2018-02-22T06:10:39.178Z,705.07
2018-02-22T06:11:39.646Z,705.15
2018-02-22T06:12:40.111Z,705.07
2018-02-22T06:14:41.027Z,705.06
2018-02-22T06:15:41.497Z,705.04
2018-02-22T06:16:41.961Z,705.13
2018-02-22T06:17:42.423Z,705.13
2018-02-22T06:18:42.888Z,705.14
2018-02-22T06:19:43.346Z,705.14
2018-02-22T06:20:43.811Z,705.12
2018-02-22T06:21:44.276Z,705.08
2018-02-22T06:22:44.789Z,705.13
2018-02-22T06:23:45.202Z,705.12
2018-02-22T06:24:45.667Z,705.07
2018-02-22T06:25:46.122Z,705.05
2018-02-22T06:26:46.591Z,705.18
2018-02-22T06:27:58.992Z,705.20
2018-02-22T06:28:47.517Z,705.12
2018-02-22T06:29:47.982Z,705.14
2018-02-22T06:32:49.366Z,705.15
2018-02-22T06:33:49.833Z,705.13
2018-02-22T06:34:50.296Z,705.23
2018-02-22T06:35:50.760Z,705.25
2018-02-22T06:36:51.223Z,705.21
2018-02-22T06:37:51.940Z,705.21
2018-02-22T06:39:52.612Z,705.21
2018-02-22T06:40:53.124Z,705.22
2018-02-22T06:41:53.544Z,705.28
2018-02-22T06:42:54.053Z,705.25
2018-02-22T06:43:54.470Z,705.26
2018-02-22T06:45:55.392Z,705.23
2018-02-22T06:46:55.856Z,705.29
2018-02-22T06:47:56.316Z,705.31
2018-02-22T06:48:56.783Z,705.28
2018-02-22T06:49:57.249Z,705.28
2018-02-22T06:50:57.708Z,705.22
2018-02-22T06:51:58.173Z,705.26
2018-02-22T06:52:58.686Z,705.25
2018-02-22T06:53:59.100Z,705.29
2018-02-22T06:54:59.563Z,705.23
2018-02-22T06:56:00.027Z,705.26
2018-02-22T06:57:00.488Z,705.30
2018-02-22T06:58:01.000Z,705.26
2018-02-22T06:59:01.416Z,705.28
2018-02-22T07:00:01.879Z,705.28
2018-02-22T07:01:02.343Z,705.31
2018-02-22T07:02:02.807Z,705.34
2018-02-22T07:03:03.268Z,705.30
2018-02-22T07:04:03.727Z,705.25
2018-02-22T07:05:04.197Z,705.32
2018-02-22T07:06:04.661Z,705.31
2018-02-22T07:07:05.122Z,705.29
2018-02-22T07:08:05.637Z,705.36
2018-02-22T07:09:06.051Z,705.28
2018-02-22T07:10:06.511Z,705.29
2018-02-22T07:11:06.981Z,705.33
2018-02-22T07:12:07.644Z,705.31
2018-02-22T07:13:07.950Z,705.39
2018-02-22T07:14:08.369Z,705.30
2018-02-22T07:15:08.830Z,705.29
2018-02-22T07:17:09.758Z,705.26
2018-02-22T07:18:10.222Z,705.32
2018-02-22T07:19:10.686Z,705.34
2018-02-22T07:20:11.142Z,705.30
2018-02-22T07:21:11.613Z,705.37
2018-02-22T07:22:12.076Z,705.27
2018-02-22T07:23:16.789Z,705.30
2018-02-22T07:24:12.998Z,705.33
2018-02-22T07:25:13.467Z,705.37
2018-02-22T07:26:13.932Z,705.30
2018-02-22T07:27:14.395Z,705.33
2018-02-22T07:29:15.324Z,705.28
2018-02-22T07:30:15.987Z,705.29
2018-02-22T07:31:16.242Z,705.30
2018-02-22T07:32:16.713Z,705.29
2018-02-22T07:33:17.226Z,705.38
2018-02-22T07:34:17.641Z,705.31
2018-02-22T07:35:18.097Z,705.38
2018-02-22T07:36:18.568Z,705.45
2018-02-22T07:37:19.027Z,705.41
2018-02-22T07:38:19.497Z,705.28
2018-02-22T07:39:19.959Z,705.43
2018-02-22T07:40:20.423Z,705.50
2018-02-22T07:41:20.888Z,705.38
2018-02-22T07:42:21.353Z,705.49
2018-02-22T07:43:21.816Z,705.47
2018-02-22T07:45:22.748Z,705.54
2018-02-22T07:46:23.210Z,705.41
2018-02-22T07:47:23.673Z,705.44
2018-02-22T07:48:24.131Z,705.52
2018-02-22T07:49:24.606Z,705.58
2018-02-22T07:50:25.068Z,705.48
2018-02-22T07:51:25.534Z,705.50
2018-02-22T07:52:25.999Z,705.49
2018-02-22T07:54:28.179Z,705.49
2018-02-22T07:55:27.385Z,705.48
2018-02-22T07:56:27.855Z,705.40
2018-02-22T07:57:28.321Z,705.45
2018-02-22T07:58:28.785Z,705.37
2018-02-22T07:59:29.293Z,705.38
2018-02-22T08:01:30.180Z,705.43
2018-02-22T08:04:31.577Z,705.46
2018-02-22T08:05:32.035Z,705.42
2018-02-22T08:06:32.508Z,705.41
2018-02-22T08:07:32.977Z,705.49
2018-02-22T08:08:33.439Z,705.46
2018-02-22T08:10:34.368Z,705.47
2018-02-22T08:11:34.832Z,705.50
2018-02-22T08:12:35.502Z,705.51
2018-02-22T08:13:35.765Z,705.52
2018-02-22T08:14:36.230Z,705.49
2018-02-22T08:15:36.698Z,705.53
2018-02-22T08:16:37.160Z,705.49
2018-02-22T08:17:37.629Z,705.46
2018-02-22T08:18:38.088Z,705.48
2018-02-22T08:19:38.763Z,705.42
2018-02-22T08:21:39.541Z,705.46
2018-02-22T08:22:39.957Z,705.49
2018-02-22T08:23:40.421Z,705.50
2018-02-22T08:24:40.889Z,705.49
2018-02-22T08:25:41.354Z,705.47
2018-02-22T08:26:41.871Z,705.47
2018-02-22T08:27:42.286Z,705.47
2018-02-22T08:28:42.747Z,705.53
2018-02-22T08:29:43.219Z,705.43
2018-02-22T08:30:43.685Z,705.42
2018-02-22T08:31:44.151Z,705.43
2018-02-22T08:32:44.618Z,705.36
2018-02-22T08:33:45.084Z,705.42
2018-02-22T08:34:45.553Z,705.43
2018-02-22T08:35:46.011Z,705.41
2018-02-22T08:36:46.535Z,705.44
2018-02-22T08:37:46.953Z,705.52
2018-02-22T08:38:47.421Z,705.47
2018-02-22T08:39:47.883Z,705.39
2018-02-22T08:40:48.354Z,705.48
2018-02-22T08:41:48.819Z,705.45
2018-02-22T08:43:49.955Z,705.33
2018-02-22T08:44:50.215Z,705.46
2018-02-22T08:45:50.688Z,705.39
2018-02-22T08:49:52.555Z,705.39
2018-02-22T08:50:53.024Z,705.37
2018-02-22T08:51:53.502Z,705.29
2018-02-22T08:52:54.008Z,705.43
2018-02-22T08:53:54.628Z,705.51
2018-02-22T08:54:54.893Z,705.34
2018-02-22T08:55:55.359Z,705.50
2018-02-22T08:56:55.827Z,705.43
2018-02-22T08:57:56.294Z,705.44
2018-02-22T08:58:56.763Z,705.47
2018-02-22T09:00:57.700Z,705.33
2018-02-22T09:01:58.167Z,705.43
2018-02-22T09:03:59.152Z,705.37
2018-02-22T09:04:59.569Z,705.39
2018-02-22T09:06:00.042Z,705.40
2018-02-22T09:07:00.506Z,705.37
2018-02-22T09:08:00.972Z,705.42
2018-02-22T09:10:01.908Z,705.41
2018-02-22T09:11:02.375Z,705.32
2018-02-22T09:12:03.042Z,705.42
2018-02-22T09:13:03.320Z,705.41
2018-02-22T09:14:15.168Z,705.38
2018-02-22T09:15:04.248Z,705.37
2018-02-22T09:16:04.712Z,705.44
2018-02-22T09:17:05.186Z,705.38
2018-02-22T09:19:06.122Z,705.38
2018-02-22T09:20:06.591Z,705.44
2018-02-22T09:21:07.059Z,705.42
2018-02-22T09:22:07.528Z,705.50
2018-02-22T09:23:07.993Z,705.47
2018-02-22T09:24:08.517Z,705.43
2018-02-22T09:25:08.935Z,705.46
2018-02-22T09:27:09.870Z,705.39
2018-02-22T09:28:10.341Z,705.46
2018-02-22T09:29:10.861Z,705.49
2018-02-22T09:30:11.279Z,705.51
2018-02-22T09:31:11.951Z,705.61
2018-02-22T09:32:12.216Z,705.46
2018-02-22T09:34:13.152Z,705.51
2018-02-22T09:35:13.625Z,705.49
2018-02-22T09:36:14.093Z,705.56
2018-02-22T09:37:14.564Z,705.46
2018-02-22T09:38:15.027Z,705.52
2018-02-22T09:39:27.131Z,705.58
2018-02-22T09:40:15.970Z,705.46
2018-02-22T09:41:16.438Z,705.46
2018-02-22T09:42:17.109Z,705.42
2018-02-22T09:44:29.379Z,705.47
2018-02-22T09:45:18.308Z,705.57
2018-02-22T09:46:18.784Z,705.50
2018-02-22T09:47:19.254Z,705.45
2018-02-22T09:48:19.723Z,705.55
2018-02-22T09:49:20.240Z,705.53
2018-02-22T09:50:20.673Z,705.47
2018-02-22T09:52:21.601Z,705.63
2018-02-22T09:53:22.069Z,705.60
2018-02-22T09:54:34.175Z,705.49
2018-02-22T09:55:23.012Z,705.53
2018-02-22T09:56:23.476Z,705.55
2018-02-22T09:58:24.416Z,705.47
2018-02-22T09:59:24.939Z,705.48
2018-02-22T10:00:25.357Z,705.50
2018-02-22T10:01:25.830Z,705.46
2018-02-22T10:03:26.765Z,705.57
2018-02-22T10:05:27.906Z,705.54
2018-02-22T10:06:28.173Z,705.62
2018-02-22T10:07:28.638Z,705.58
2018-02-22T10:09:29.580Z,705.52
2018-02-22T10:10:30.051Z,705.54
2018-02-22T10:11:30.528Z,705.60
2018-02-22T10:12:31.031Z,705.55
2018-02-22T10:13:31.460Z,705.60
2018-02-22T10:14:31.983Z,705.58
2018-02-22T10:15:32.400Z,705.57
2018-02-22T10:16:32.867Z,705.61
2018-02-22T10:17:33.338Z,705.53
2018-02-22T10:18:33.809Z,705.63
2018-02-22T10:20:34.749Z,705.63
2018-02-22T10:21:35.219Z,705.64
2018-02-22T10:22:35.689Z,705.69
2018-02-22T10:23:36.157Z,705.64
2018-02-22T10:24:36.678Z,705.58
2018-02-22T10:25:37.097Z,705.68
2018-02-22T10:26:37.568Z,705.65
2018-02-22T10:27:38.236Z,705.68
2018-02-22T10:28:38.509Z,705.62
2018-02-22T10:29:38.977Z,705.65
2018-02-22T10:30:39.657Z,705.64
2018-02-22T10:31:39.917Z,705.57
2018-02-22T10:32:40.388Z,705.65
2018-02-22T10:33:40.859Z,705.67
2018-02-22T10:35:41.796Z,705.70
2018-02-22T10:36:42.267Z,705.65
2018-02-22T10:37:42.736Z,705.60
2018-02-22T10:44:39.175Z,705.75
2018-02-22T10:45:39.591Z,705.73
2018-02-22T10:46:40.067Z,705.80
2018-02-22T10:47:40.528Z,705.75
2018-02-22T10:48:41.003Z,705.71
2018-02-22T10:49:41.475Z,705.73
2018-02-22T10:51:42.418Z,705.80
2018-02-22T10:52:42.886Z,705.83
2018-02-22T10:53:43.360Z,705.73
2018-02-22T10:54:43.823Z,705.81
2018-02-22T10:56:44.770Z,705.83
2018-02-22T10:57:45.443Z,705.81
2018-02-22T10:58:45.713Z,705.79
2018-02-22T11:00:46.658Z,705.87
2018-02-22T11:01:47.128Z,705.90
2018-02-22T11:02:47.595Z,705.83
2018-02-22T11:03:48.069Z,705.82
2018-02-22T11:05:49.014Z,705.85
2018-02-22T11:06:49.482Z,705.87
2018-02-22T11:07:49.953Z,705.92
2018-02-22T11:08:50.424Z,705.90
2018-02-22T11:10:02.533Z,705.91
2018-02-22T11:10:51.372Z,705.83
2018-02-22T11:11:51.836Z,705.88
2018-02-22T11:12:52.312Z,705.81
2018-02-22T11:14:53.297Z,705.80
2018-02-22T11:15:53.723Z,705.85
2018-02-22T11:16:54.195Z,705.78
2018-02-22T11:17:54.667Z,705.76
2018-02-22T11:18:55.340Z,705.81
2018-02-22T11:20:56.084Z,705.83
2018-02-22T11:21:56.550Z,705.89
2018-02-22T11:22:57.227Z,705.85
2018-02-22T11:23:57.497Z,705.78
2018-02-22T11:25:58.642Z,705.82
2018-02-22T11:26:58.911Z,705.85
2018-02-22T11:27:59.423Z,705.80
2018-02-22T11:28:59.852Z,705.88
2018-02-22T11:30:00.326Z,705.84
2018-02-22T11:31:12.487Z,705.90
2018-02-22T11:32:01.270Z,705.85
2018-02-22T11:33:01.745Z,705.86
2018-02-22T11:34:02.215Z,705.89
2018-02-22T11:35:02.687Z,705.92
2018-02-22T11:36:03.209Z,705.92
2018-02-22T11:37:03.629Z,705.85
2018-02-22T11:38:04.102Z,705.85
2018-02-22T11:39:04.573Z,705.85
2018-02-22T11:40:05.046Z,705.93
2018-02-22T11:41:05.769Z,705.86
2018-02-22T11:43:06.461Z,705.93
2018-02-22T11:45:07.406Z,705.95
2018-02-22T11:46:07.929Z,705.98
2018-02-22T11:47:08.350Z,706.02
2018-02-22T11:48:08.820Z,705.96
2018-02-22T11:49:09.293Z,705.88
2018-02-22T11:50:09.766Z,705.83
2018-02-22T11:51:10.290Z,705.84
2018-02-22T11:52:10.715Z,705.92
2018-02-22T11:53:11.183Z,705.89
2018-02-22T11:54:11.653Z,705.90
2018-02-22T11:55:12.130Z,705.88
2018-02-22T11:56:24.541Z,705.86
2018-02-22T11:57:13.067Z,705.93
2018-02-22T11:58:13.586Z,705.94
2018-02-22T11:59:14.016Z,705.92
2018-02-22T12:00:14.695Z,705.84
2018-02-22T12:01:15.214Z,705.89
2018-02-22T12:02:15.435Z,705.95
2018-02-22T12:03:15.908Z,705.95
2018-02-22T12:04:16.379Z,705.87
2018-02-22T12:05:16.854Z,705.91
2018-02-22T12:06:29.909Z,705.84
2018-02-22T12:07:17.798Z,705.92
2018-02-22T12:08:18.472Z,705.85
2018-02-22T12:09:18.743Z,705.87
2018-02-22T12:10:19.214Z,705.89
2018-02-22T12:11:19.768Z,705.83
2018-02-22T12:13:20.632Z,705.85
2018-02-22T12:14:21.109Z,705.85
2018-02-22T12:16:22.052Z,705.95
2018-02-22T12:17:22.524Z,705.89
2018-02-22T12:18:22.990Z,705.95
2018-02-22T12:19:23.473Z,705.93
2018-02-22T12:20:23.944Z,705.91
2018-02-22T12:22:24.888Z,705.90
2018-02-22T12:23:25.362Z,705.98
2018-02-22T12:25:26.306Z,705.93
2018-02-22T12:26:26.828Z,705.96
2018-02-22T12:28:27.726Z,705.95
2018-02-22T12:29:28.195Z,705.95
2018-02-22T12:30:28.671Z,705.94
2018-02-22T12:32:29.668Z,705.94
2018-02-22T12:33:30.090Z,706.04
2018-02-22T12:34:30.560Z,705.97
2018-02-22T12:35:31.239Z,705.99
2018-02-22T12:36:31.509Z,705.98
2018-02-22T12:40:33.395Z,706.02
2018-02-22T12:41:33.873Z,705.97
2018-02-22T12:42:34.347Z,706.06
2018-02-22T12:43:34.818Z,705.96
2018-02-22T12:44:35.292Z,706.04
2018-02-22T12:45:35.966Z,706.07
2018-02-22T12:46:36.237Z,706.06
2018-02-22T12:47:36.705Z,705.98
2018-02-22T12:48:37.185Z,706.06
2018-02-22T12:49:37.656Z,706.10
2018-02-22T12:50:38.129Z,706.04
2018-02-22T12:51:38.600Z,706.04
2018-02-22T12:52:39.076Z,706.01
2018-02-22T12:53:39.547Z,706.06
2018-02-22T12:54:40.021Z,706.02
2018-02-22T12:55:40.494Z,706.05
2018-02-22T12:56:40.969Z,706.11
2018-02-22T12:57:41.444Z,706.08
2018-02-22T12:58:41.913Z,706.05
2018-02-22T12:59:42.385Z,706.05
2018-02-22T13:00:42.860Z,706.06
2018-02-22T13:01:43.331Z,706.09
2018-02-22T13:03:44.329Z,706.13
2018-02-22T13:04:44.747Z,706.08
2018-02-22T13:05:45.227Z,706.12
2018-02-22T13:07:46.170Z,706.11
2018-02-22T13:08:46.643Z,706.10
2018-02-22T13:09:47.111Z,706.12
2018-02-22T13:11:48.062Z,706.08
2018-02-22T13:12:48.735Z,706.11
2018-02-22T13:14:49.480Z,706.12
2018-02-22T13:15:49.956Z,706.16
2018-02-22T13:16:50.421Z,706.15
2018-02-22T13:17:50.898Z,706.11
2018-02-22T13:18:51.771Z,706.13
2018-02-22T13:19:51.849Z,706.12
2018-02-22T13:20:52.319Z,706.18
2018-02-22T13:21:52.793Z,706.13
2018-02-22T13:22:53.259Z,706.02
2018-02-22T13:23:53.792Z,706.15
2018-02-22T13:24:54.211Z,706.09
2018-02-22T13:25:54.681Z,706.15
2018-02-22T13:26:55.154Z,706.15
2018-02-22T13:27:55.628Z,706.09
2018-02-22T13:28:56.096Z,706.11
2018-02-22T13:29:56.573Z,706.06
2018-02-22T13:30:57.047Z,706.15
2018-02-22T13:31:57.723Z,706.08
2018-02-22T13:32:57.993Z,706.11
2018-02-22T13:33:58.510Z,706.15
2018-02-22T13:34:58.938Z,706.15
2018-02-22T13:35:59.409Z,706.19
2018-02-22T13:36:59.884Z,706.16
2018-02-22T13:38:00.349Z,706.15
2018-02-22T13:39:01.030Z,706.10
2018-02-22T13:40:01.300Z,706.20
2018-02-22T13:41:01.774Z,706.18
2018-02-22T13:42:02.248Z,706.14
2018-02-22T13:43:02.719Z,706.12
2018-02-22T13:44:03.191Z,706.20
2018-02-22T13:45:03.665Z,706.14
2018-02-22T13:46:04.139Z,706.15
2018-02-22T13:47:04.610Z,706.18
2018-02-22T13:48:05.080Z,706.22
2018-02-22T13:49:17.345Z,706.16
2018-02-22T13:50:06.025Z,706.20
2018-02-22T13:51:06.501Z,706.17
2018-02-22T13:52:06.973Z,706.17
2018-02-22T13:53:07.445Z,706.16
2018-02-22T13:54:07.968Z,706.12
2018-02-22T13:55:08.390Z,706.11
2018-02-22T13:56:08.862Z,706.22
2018-02-22T13:57:09.336Z,706.10
2018-02-22T13:58:09.808Z,706.10
2018-02-22T13:59:10.527Z,706.14
2018-02-22T14:01:11.221Z,706.12
2018-02-22T14:02:11.698Z,706.22
2018-02-22T14:03:12.170Z,706.16
2018-02-22T14:05:13.117Z,706.15
2018-02-22T14:07:14.061Z,706.07
2018-02-22T14:08:14.532Z,706.15
2018-02-22T14:09:15.057Z,706.13
2018-02-22T14:10:15.478Z,706.10
2018-02-22T14:11:15.950Z,706.12
2018-02-22T14:12:16.424Z,706.21
2018-02-22T14:13:16.896Z,706.16
2018-02-22T14:14:17.362Z,706.16